sensor_id;sensor_type;location;lat;lon;timestamp;P1;durP1;ratioP1;P2;durP2;ratioP2
4174;SDS011;2101;48.290;14.382;2023-09-19T00:00:36;17.80;;;3.40;;
4174;SDS011;2101;48.290;14.382;2023-09-19T00:03:02;16.63;;;3.63;;
4174;SDS011;2101;48.290;14.382;2023-09-19T00:05:29;17.90;;;3.20;;
4174;SDS011;2101;48.290;14.382;2023-09-19T00:08:09;22.07;;;3.30;;
4174;SDS011;2101;48.290;14.382;2023-09-19T00:10:38;16.70;;;3.10;;
4174;SDS011;2101;48.290;14.382;2023-09-19T00:13:06;15.70;;;2.80;;
4174;SDS011;2101;48.290;14.382;2023-09-19T00:15:37;20.30;;;3.90;;
4174;SDS011;2101;48.290;14.382;2023-09-19T00:18:03;17.57;;;2.83;;
4174;SDS011;2101;48.290;14.382;2023-09-19T00:20:31;22.00;;;3.93;;
4174;SDS011;2101;48.290;14.382;2023-09-19T00:23:00;18.83;;;3.20;;
4174;SDS011;2101;48.290;14.382;2023-09-19T00:25:38;20.20;;;3.53;;
4174;SDS011;2101;48.290;14.382;2023-09-19T00:28:10;17.20;;;3.40;;
4174;SDS011;2101;48.290;14.382;2023-09-19T00:30:45;21.93;;;3.97;;
4174;SDS011;2101;48.290;14.382;2023-09-19T00:33:17;27.80;;;4.50;;
4174;SDS011;2101;48.290;14.382;2023-09-19T00:35:50;22.40;;;5.53;;
4174;SDS011;2101;48.290;14.382;2023-09-19T00:38:22;23.00;;;4.60;;
4174;SDS011;2101;48.290;14.382;2023-09-19T00:40:52;22.60;;;4.17;;
4174;SDS011;2101;48.290;14.382;2023-09-19T00:43:18;20.57;;;5.10;;
4174;SDS011;2101;48.290;14.382;2023-09-19T00:45:44;18.83;;;4.50;;
4174;SDS011;2101;48.290;14.382;2023-09-19T00:48:11;33.33;;;5.60;;
4174;SDS011;2101;48.290;14.382;2023-09-19T00:50:37;18.10;;;4.57;;
4174;SDS011;2101;48.290;14.382;2023-09-19T00:53:07;17.53;;;4.20;;
4174;SDS011;2101;48.290;14.382;2023-09-19T00:55:36;20.80;;;4.03;;
4174;SDS011;2101;48.290;14.382;2023-09-19T00:58:03;18.03;;;4.30;;
4174;SDS011;2101;48.290;14.382;2023-09-19T01:00:35;20.47;;;4.80;;
4174;SDS011;2101;48.290;14.382;2023-09-19T01:03:01;19.60;;;3.80;;
4174;SDS011;2101;48.290;14.382;2023-09-19T01:05:28;22.53;;;4.30;;
4174;SDS011;2101;48.290;14.382;2023-09-19T01:07:55;20.10;;;4.70;;
4174;SDS011;2101;48.290;14.382;2023-09-19T01:10:21;20.90;;;3.97;;
4174;SDS011;2101;48.290;14.382;2023-09-19T01:12:52;81.10;;;6.50;;
4174;SDS011;2101;48.290;14.382;2023-09-19T01:15:28;48.03;;;5.33;;
4174;SDS011;2101;48.290;14.382;2023-09-19T01:23:20;20.93;;;3.70;;
4174;SDS011;2101;48.290;14.382;2023-09-19T01:30:46;32.90;;;4.17;;
4174;SDS011;2101;48.290;14.382;2023-09-19T01:33:15;24.53;;;3.77;;
4174;SDS011;2101;48.290;14.382;2023-09-19T01:35:46;19.27;;;3.87;;
4174;SDS011;2101;48.290;14.382;2023-09-19T01:38:14;21.43;;;4.17;;
4174;SDS011;2101;48.290;14.382;2023-09-19T01:40:47;18.37;;;3.43;;
4174;SDS011;2101;48.290;14.382;2023-09-19T01:43:30;18.03;;;2.90;;
4174;SDS011;2101;48.290;14.382;2023-09-19T01:46:26;16.20;;;3.00;;
4174;SDS011;2101;48.290;14.382;2023-09-19T01:52:16;21.17;;;2.13;;
4174;SDS011;2101;48.290;14.382;2023-09-19T01:55:35;17.90;;;2.13;;
4174;SDS011;2101;48.290;14.382;2023-09-19T02:01:33;30.60;;;2.43;;
4174;SDS011;2101;48.290;14.382;2023-09-19T02:04:02;20.03;;;2.40;;
4174;SDS011;2101;48.290;14.382;2023-09-19T02:06:35;20.03;;;2.40;;
4174;SDS011;2101;48.290;14.382;2023-09-19T02:09:08;16.50;;;2.10;;
4174;SDS011;2101;48.290;14.382;2023-09-19T02:11:40;16.90;;;2.50;;
4174;SDS011;2101;48.290;14.382;2023-09-19T02:14:36;17.83;;;2.23;;
4174;SDS011;2101;48.290;14.382;2023-09-19T02:17:33;22.50;;;3.00;;
4174;SDS011;2101;48.290;14.382;2023-09-19T02:20:24;17.10;;;2.50;;
4174;SDS011;2101;48.290;14.382;2023-09-19T02:23:09;24.63;;;3.60;;
4174;SDS011;2101;48.290;14.382;2023-09-19T02:25:42;23.27;;;3.77;;
4174;SDS011;2101;48.290;14.382;2023-09-19T02:34:02;20.10;;;3.97;;
4174;SDS011;2101;48.290;14.382;2023-09-19T02:36:45;16.80;;;2.83;;
4174;SDS011;2101;48.290;14.382;2023-09-19T02:39:44;36.80;;;3.00;;
4174;SDS011;2101;48.290;14.382;2023-09-19T02:42:31;17.60;;;2.90;;
4174;SDS011;2101;48.290;14.382;2023-09-19T02:45:00;16.83;;;2.03;;
4174;SDS011;2101;48.290;14.382;2023-09-19T02:53:19;19.33;;;1.93;;
4174;SDS011;2101;48.290;14.382;2023-09-19T02:55:49;21.83;;;2.27;;
4174;SDS011;2101;48.290;14.382;2023-09-19T02:58:21;17.00;;;2.30;;
4174;SDS011;2101;48.290;14.382;2023-09-19T03:00:48;14.87;;;1.80;;
4174;SDS011;2101;48.290;14.382;2023-09-19T03:03:16;13.80;;;1.30;;
4174;SDS011;2101;48.290;14.382;2023-09-19T03:05:42;20.13;;;1.40;;
4174;SDS011;2101;48.290;14.382;2023-09-19T03:08:12;15.73;;;1.70;;
4174;SDS011;2101;48.290;14.382;2023-09-19T03:10:40;17.90;;;1.43;;
4174;SDS011;2101;48.290;14.382;2023-09-19T03:13:06;14.33;;;1.23;;
4174;SDS011;2101;48.290;14.382;2023-09-19T03:15:35;15.97;;;1.70;;
4174;SDS011;2101;48.290;14.382;2023-09-19T03:18:04;15.00;;;1.50;;
4174;SDS011;2101;48.290;14.382;2023-09-19T03:20:37;14.13;;;1.57;;
4174;SDS011;2101;48.290;14.382;2023-09-19T03:23:04;15.70;;;2.00;;
4174;SDS011;2101;48.290;14.382;2023-09-19T03:25:33;14.50;;;1.60;;
4174;SDS011;2101;48.290;14.382;2023-09-19T03:28:04;16.27;;;2.13;;
4174;SDS011;2101;48.290;14.382;2023-09-19T03:30:33;14.70;;;1.70;;
4174;SDS011;2101;48.290;14.382;2023-09-19T03:32:59;17.40;;;2.03;;
4174;SDS011;2101;48.290;14.382;2023-09-19T03:35:25;15.27;;;1.93;;
4174;SDS011;2101;48.290;14.382;2023-09-19T03:37:51;14.10;;;1.67;;
4174;SDS011;2101;48.290;14.382;2023-09-19T03:40:17;18.10;;;2.07;;
4174;SDS011;2101;48.290;14.382;2023-09-19T03:42:46;18.03;;;2.07;;
4174;SDS011;2101;48.290;14.382;2023-09-19T03:45:13;16.50;;;2.13;;
4174;SDS011;2101;48.290;14.382;2023-09-19T03:47:41;17.93;;;2.20;;
4174;SDS011;2101;48.290;14.382;2023-09-19T03:50:07;24.17;;;3.40;;
4174;SDS011;2101;48.290;14.382;2023-09-19T03:52:36;18.07;;;3.63;;
4174;SDS011;2101;48.290;14.382;2023-09-19T03:55:02;27.93;;;5.00;;
4174;SDS011;2101;48.290;14.382;2023-09-19T03:57:29;17.63;;;3.30;;
4174;SDS011;2101;48.290;14.382;2023-09-19T03:59:59;16.87;;;2.83;;
4174;SDS011;2101;48.290;14.382;2023-09-19T04:02:25;21.10;;;3.63;;
4174;SDS011;2101;48.290;14.382;2023-09-19T04:04:58;22.13;;;3.03;;
4174;SDS011;2101;48.290;14.382;2023-09-19T04:07:24;18.23;;;3.00;;
4174;SDS011;2101;48.290;14.382;2023-09-19T04:09:53;16.33;;;2.70;;
4174;SDS011;2101;48.290;14.382;2023-09-19T04:12:28;18.00;;;3.07;;
4174;SDS011;2101;48.290;14.382;2023-09-19T04:14:54;21.40;;;3.40;;
4174;SDS011;2101;48.290;14.382;2023-09-19T04:17:21;18.20;;;3.40;;
4174;SDS011;2101;48.290;14.382;2023-09-19T04:19:48;17.90;;;3.13;;
4174;SDS011;2101;48.290;14.382;2023-09-19T04:22:14;15.87;;;2.60;;
4174;SDS011;2101;48.290;14.382;2023-09-19T04:24:40;19.17;;;3.77;;
4174;SDS011;2101;48.290;14.382;2023-09-19T04:27:06;23.53;;;3.67;;
4174;SDS011;2101;48.290;14.382;2023-09-19T04:29:34;26.40;;;4.43;;
4174;SDS011;2101;48.290;14.382;2023-09-19T04:32:07;21.73;;;4.43;;
4174;SDS011;2101;48.290;14.382;2023-09-19T04:34:34;21.33;;;3.87;;
4174;SDS011;2101;48.290;14.382;2023-09-19T04:37:00;68.50;;;6.43;;
4174;SDS011;2101;48.290;14.382;2023-09-19T04:39:27;19.20;;;3.50;;
4174;SDS011;2101;48.290;14.382;2023-09-19T04:41:53;19.60;;;3.27;;
4174;SDS011;2101;48.290;14.382;2023-09-19T04:44:20;20.10;;;3.80;;
4174;SDS011;2101;48.290;14.382;2023-09-19T04:46:46;18.17;;;3.30;;
4174;SDS011;2101;48.290;14.382;2023-09-19T04:49:12;20.50;;;3.27;;
4174;SDS011;2101;48.290;14.382;2023-09-19T04:51:39;18.20;;;3.00;;
4174;SDS011;2101;48.290;14.382;2023-09-19T04:54:05;18.90;;;2.83;;
4174;SDS011;2101;48.290;14.382;2023-09-19T04:56:32;18.37;;;2.87;;
4174;SDS011;2101;48.290;14.382;2023-09-19T04:58:59;18.97;;;2.97;;
4174;SDS011;2101;48.290;14.382;2023-09-19T05:01:28;18.00;;;3.03;;
4174;SDS011;2101;48.290;14.382;2023-09-19T05:03:59;23.33;;;2.70;;
4174;SDS011;2101;48.290;14.382;2023-09-19T05:06:26;17.10;;;3.27;;
4174;SDS011;2101;48.290;14.382;2023-09-19T05:08:53;18.30;;;2.83;;
4174;SDS011;2101;48.290;14.382;2023-09-19T05:11:20;20.33;;;2.93;;
4174;SDS011;2101;48.290;14.382;2023-09-19T05:13:49;14.73;;;2.00;;
4174;SDS011;2101;48.290;14.382;2023-09-19T05:16:17;16.77;;;3.10;;
4174;SDS011;2101;48.290;14.382;2023-09-19T05:18:43;16.87;;;2.37;;
4174;SDS011;2101;48.290;14.382;2023-09-19T05:21:10;17.27;;;2.50;;
4174;SDS011;2101;48.290;14.382;2023-09-19T05:23:37;29.00;;;4.50;;
4174;SDS011;2101;48.290;14.382;2023-09-19T05:26:03;26.00;;;4.60;;
4174;SDS011;2101;48.290;14.382;2023-09-19T05:28:30;25.03;;;4.47;;
4174;SDS011;2101;48.290;14.382;2023-09-19T05:30:59;21.17;;;3.97;;
4174;SDS011;2101;48.290;14.382;2023-09-19T05:33:26;19.03;;;3.47;;
4174;SDS011;2101;48.290;14.382;2023-09-19T05:35:58;24.80;;;5.00;;
4174;SDS011;2101;48.290;14.382;2023-09-19T05:38:24;20.10;;;4.40;;
4174;SDS011;2101;48.290;14.382;2023-09-19T05:40:51;20.90;;;4.27;;
4174;SDS011;2101;48.290;14.382;2023-09-19T05:43:17;19.67;;;4.90;;
4174;SDS011;2101;48.290;14.382;2023-09-19T05:45:44;21.83;;;4.60;;
4174;SDS011;2101;48.290;14.382;2023-09-19T05:48:14;23.13;;;4.53;;
4174;SDS011;2101;48.290;14.382;2023-09-19T05:50:47;20.30;;;3.97;;
4174;SDS011;2101;48.290;14.382;2023-09-19T05:53:22;23.77;;;4.33;;
4174;SDS011;2101;48.290;14.382;2023-09-19T05:55:48;23.10;;;4.70;;
4174;SDS011;2101;48.290;14.382;2023-09-19T05:58:18;19.17;;;4.53;;
4174;SDS011;2101;48.290;14.382;2023-09-19T06:00:48;23.50;;;4.63;;
4174;SDS011;2101;48.290;14.382;2023-09-19T06:03:17;26.17;;;4.80;;
4174;SDS011;2101;48.290;14.382;2023-09-19T06:05:44;27.53;;;5.90;;
4174;SDS011;2101;48.290;14.382;2023-09-19T06:08:11;27.13;;;6.00;;
4174;SDS011;2101;48.290;14.382;2023-09-19T06:10:37;24.50;;;5.00;;
4174;SDS011;2101;48.290;14.382;2023-09-19T06:13:03;21.03;;;4.57;;
4174;SDS011;2101;48.290;14.382;2023-09-19T06:15:31;23.90;;;5.00;;
4174;SDS011;2101;48.290;14.382;2023-09-19T06:17:58;21.47;;;4.80;;
4174;SDS011;2101;48.290;14.382;2023-09-19T06:20:26;22.20;;;5.00;;
4174;SDS011;2101;48.290;14.382;2023-09-19T06:22:52;18.70;;;3.80;;
4174;SDS011;2101;48.290;14.382;2023-09-19T06:25:19;20.63;;;4.27;;
4174;SDS011;2101;48.290;14.382;2023-09-19T06:27:47;22.40;;;4.20;;
4174;SDS011;2101;48.290;14.382;2023-09-19T06:30:14;18.40;;;3.80;;
4174;SDS011;2101;48.290;14.382;2023-09-19T06:32:40;33.23;;;4.30;;
4174;SDS011;2101;48.290;14.382;2023-09-19T06:35:13;16.10;;;2.70;;
4174;SDS011;2101;48.290;14.382;2023-09-19T06:37:39;19.50;;;3.03;;
4174;SDS011;2101;48.290;14.382;2023-09-19T06:40:12;19.60;;;3.37;;
4174;SDS011;2101;48.290;14.382;2023-09-19T06:42:45;23.67;;;3.40;;
4174;SDS011;2101;48.290;14.382;2023-09-19T06:45:14;18.50;;;3.30;;
4174;SDS011;2101;48.290;14.382;2023-09-19T06:47:44;18.20;;;3.53;;
4174;SDS011;2101;48.290;14.382;2023-09-19T06:50:11;24.20;;;3.80;;
4174;SDS011;2101;48.290;14.382;2023-09-19T06:52:40;17.80;;;3.70;;
4174;SDS011;2101;48.290;14.382;2023-09-19T06:55:07;27.97;;;4.10;;
4174;SDS011;2101;48.290;14.382;2023-09-19T06:57:35;19.10;;;4.30;;
4174;SDS011;2101;48.290;14.382;2023-09-19T07:00:01;19.33;;;4.13;;
4174;SDS011;2101;48.290;14.382;2023-09-19T07:02:34;17.77;;;3.50;;
4174;SDS011;2101;48.290;14.382;2023-09-19T07:05:01;18.63;;;2.87;;
4174;SDS011;2101;48.290;14.382;2023-09-19T07:07:28;15.07;;;2.47;;
4174;SDS011;2101;48.290;14.382;2023-09-19T07:09:54;18.53;;;3.07;;
4174;SDS011;2101;48.290;14.382;2023-09-19T07:12:23;22.50;;;2.60;;
4174;SDS011;2101;48.290;14.382;2023-09-19T07:14:49;28.63;;;3.40;;
4174;SDS011;2101;48.290;14.382;2023-09-19T07:17:16;15.50;;;2.33;;
4174;SDS011;2101;48.290;14.382;2023-09-19T07:19:44;15.80;;;2.67;;
4174;SDS011;2101;48.290;14.382;2023-09-19T07:22:10;17.90;;;3.37;;
4174;SDS011;2101;48.290;14.382;2023-09-19T07:24:38;19.20;;;2.70;;
4174;SDS011;2101;48.290;14.382;2023-09-19T07:27:04;20.97;;;3.37;;
4174;SDS011;2101;48.290;14.382;2023-09-19T07:29:30;20.00;;;3.20;;
4174;SDS011;2101;48.290;14.382;2023-09-19T07:31:56;18.60;;;2.70;;
4174;SDS011;2101;48.290;14.382;2023-09-19T07:34:23;20.07;;;2.93;;
4174;SDS011;2101;48.290;14.382;2023-09-19T07:36:49;16.83;;;2.73;;
4174;SDS011;2101;48.290;14.382;2023-09-19T07:39:16;19.47;;;3.53;;
4174;SDS011;2101;48.290;14.382;2023-09-19T07:41:42;18.90;;;2.97;;
4174;SDS011;2101;48.290;14.382;2023-09-19T07:44:10;15.40;;;1.60;;
4174;SDS011;2101;48.290;14.382;2023-09-19T07:46:36;14.33;;;1.43;;
4174;SDS011;2101;48.290;14.382;2023-09-19T07:49:02;16.83;;;1.33;;
4174;SDS011;2101;48.290;14.382;2023-09-19T07:51:29;16.10;;;1.37;;
4174;SDS011;2101;48.290;14.382;2023-09-19T07:53:58;14.43;;;1.30;;
4174;SDS011;2101;48.290;14.382;2023-09-19T07:56:24;14.70;;;1.37;;
4174;SDS011;2101;48.290;14.382;2023-09-19T07:58:54;13.23;;;1.23;;
4174;SDS011;2101;48.290;14.382;2023-09-19T08:01:23;14.53;;;1.40;;
4174;SDS011;2101;48.290;14.382;2023-09-19T08:03:55;15.87;;;1.40;;
4174;SDS011;2101;48.290;14.382;2023-09-19T08:06:28;16.30;;;1.30;;
4174;SDS011;2101;48.290;14.382;2023-09-19T08:08:59;14.73;;;1.00;;
4174;SDS011;2101;48.290;14.382;2023-09-19T08:14:34;15.10;;;1.50;;
4174;SDS011;2101;48.290;14.382;2023-09-19T08:17:07;16.40;;;1.20;;
4174;SDS011;2101;48.290;14.382;2023-09-19T08:19:33;13.03;;;1.10;;
4174;SDS011;2101;48.290;14.382;2023-09-19T08:22:01;14.40;;;1.07;;
4174;SDS011;2101;48.290;14.382;2023-09-19T08:24:36;14.00;;;1.20;;
4174;SDS011;2101;48.290;14.382;2023-09-19T08:27:13;13.57;;;1.20;;
4174;SDS011;2101;48.290;14.382;2023-09-19T08:29:46;14.53;;;1.10;;
4174;SDS011;2101;48.290;14.382;2023-09-19T08:32:22;16.10;;;1.40;;
4174;SDS011;2101;48.290;14.382;2023-09-19T08:34:51;14.60;;;1.37;;
4174;SDS011;2101;48.290;14.382;2023-09-19T08:37:17;20.80;;;1.40;;
4174;SDS011;2101;48.290;14.382;2023-09-19T08:39:44;15.40;;;1.40;;
4174;SDS011;2101;48.290;14.382;2023-09-19T08:42:10;14.30;;;1.63;;
4174;SDS011;2101;48.290;14.382;2023-09-19T08:44:37;13.67;;;1.37;;
4174;SDS011;2101;48.290;14.382;2023-09-19T08:47:14;19.20;;;2.13;;
4174;SDS011;2101;48.290;14.382;2023-09-19T08:52:13;13.90;;;1.33;;
4174;SDS011;2101;48.290;14.382;2023-09-19T08:54:42;16.93;;;1.63;;
4174;SDS011;2101;48.290;14.382;2023-09-19T08:57:11;28.43;;;1.90;;
4174;SDS011;2101;48.290;14.382;2023-09-19T08:59:43;18.17;;;2.30;;
4174;SDS011;2101;48.290;14.382;2023-09-19T09:02:13;15.20;;;1.87;;
4174;SDS011;2101;48.290;14.382;2023-09-19T09:04:40;16.30;;;2.30;;
4174;SDS011;2101;48.290;14.382;2023-09-19T09:07:10;19.80;;;2.40;;
4174;SDS011;2101;48.290;14.382;2023-09-19T09:09:38;16.50;;;2.10;;
4174;SDS011;2101;48.290;14.382;2023-09-19T09:12:11;21.90;;;2.83;;
4174;SDS011;2101;48.290;14.382;2023-09-19T09:14:40;18.93;;;2.73;;
4174;SDS011;2101;48.290;14.382;2023-09-19T09:17:14;16.27;;;2.40;;
4174;SDS011;2101;48.290;14.382;2023-09-19T09:19:48;17.53;;;2.33;;
4174;SDS011;2101;48.290;14.382;2023-09-19T09:22:17;16.13;;;1.87;;
4174;SDS011;2101;48.290;14.382;2023-09-19T09:27:19;16.73;;;2.10;;
4174;SDS011;2101;48.290;14.382;2023-09-19T09:29:46;15.23;;;1.60;;
4174;SDS011;2101;48.290;14.382;2023-09-19T09:32:19;15.67;;;1.47;;
4174;SDS011;2101;48.290;14.382;2023-09-19T09:34:51;18.40;;;1.87;;
4174;SDS011;2101;48.290;14.382;2023-09-19T09:37:20;14.80;;;1.63;;
4174;SDS011;2101;48.290;14.382;2023-09-19T09:39:59;17.33;;;1.70;;
4174;SDS011;2101;48.290;14.382;2023-09-19T09:42:45;14.93;;;1.70;;
4174;SDS011;2101;48.290;14.382;2023-09-19T09:48:04;13.90;;;1.30;;
4174;SDS011;2101;48.290;14.382;2023-09-19T09:50:39;13.97;;;1.70;;
4174;SDS011;2101;48.290;14.382;2023-09-19T09:56:08;18.50;;;1.53;;
4174;SDS011;2101;48.290;14.382;2023-09-19T09:58:38;14.90;;;1.90;;
4174;SDS011;2101;48.290;14.382;2023-09-19T10:01:46;16.23;;;1.77;;
4174;SDS011;2101;48.290;14.382;2023-09-19T10:04:26;18.10;;;2.10;;
4174;SDS011;2101;48.290;14.382;2023-09-19T10:07:03;14.60;;;1.63;;
4174;SDS011;2101;48.290;14.382;2023-09-19T10:09:45;16.30;;;1.57;;
4174;SDS011;2101;48.290;14.382;2023-09-19T10:12:12;18.43;;;1.60;;
4174;SDS011;2101;48.290;14.382;2023-09-19T10:14:39;19.33;;;1.37;;
4174;SDS011;2101;48.290;14.382;2023-09-19T10:17:12;14.40;;;1.30;;
4174;SDS011;2101;48.290;14.382;2023-09-19T10:19:56;13.57;;;1.10;;
4174;SDS011;2101;48.290;14.382;2023-09-19T10:22:26;12.87;;;1.03;;
4174;SDS011;2101;48.290;14.382;2023-09-19T10:24:55;14.40;;;1.03;;
4174;SDS011;2101;48.290;14.382;2023-09-19T10:27:27;15.40;;;1.20;;
4174;SDS011;2101;48.290;14.382;2023-09-19T10:29:56;16.37;;;1.23;;
4174;SDS011;2101;48.290;14.382;2023-09-19T10:32:25;13.40;;;1.10;;
4174;SDS011;2101;48.290;14.382;2023-09-19T10:34:53;13.57;;;1.17;;
4174;SDS011;2101;48.290;14.382;2023-09-19T10:37:20;13.60;;;1.23;;
4174;SDS011;2101;48.290;14.382;2023-09-19T10:39:47;14.47;;;1.10;;
4174;SDS011;2101;48.290;14.382;2023-09-19T10:42:17;13.77;;;1.30;;
4174;SDS011;2101;48.290;14.382;2023-09-19T10:44:45;13.50;;;1.10;;
4174;SDS011;2101;48.290;14.382;2023-09-19T10:47:27;14.70;;;1.17;;
4174;SDS011;2101;48.290;14.382;2023-09-19T10:49:54;15.00;;;1.17;;
4174;SDS011;2101;48.290;14.382;2023-09-19T10:52:22;12.93;;;1.00;;
4174;SDS011;2101;48.290;14.382;2023-09-19T10:54:50;13.53;;;0.93;;
4174;SDS011;2101;48.290;14.382;2023-09-19T10:57:23;13.20;;;1.00;;
4174;SDS011;2101;48.290;14.382;2023-09-19T11:00:03;12.77;;;0.97;;
4174;SDS011;2101;48.290;14.382;2023-09-19T11:05:32;14.40;;;0.97;;
4174;SDS011;2101;48.290;14.382;2023-09-19T11:08:03;14.13;;;0.93;;
4174;SDS011;2101;48.290;14.382;2023-09-19T11:13:28;14.80;;;1.13;;
4174;SDS011;2101;48.290;14.382;2023-09-19T11:16:02;14.20;;;1.20;;
4174;SDS011;2101;48.290;14.382;2023-09-19T11:26:43;13.87;;;1.07;;
4174;SDS011;2101;48.290;14.382;2023-09-19T11:29:28;20.70;;;1.00;;
4174;SDS011;2101;48.290;14.382;2023-09-19T11:31:55;13.93;;;1.00;;
4174;SDS011;2101;48.290;14.382;2023-09-19T11:34:42;13.50;;;1.23;;
4174;SDS011;2101;48.290;14.382;2023-09-19T11:37:59;13.17;;;0.80;;
4174;SDS011;2101;48.290;14.382;2023-09-19T11:40:06;13.13;;;0.90;;
4174;SDS011;2101;48.290;14.382;2023-09-19T11:42:43;12.63;;;0.80;;
4174;SDS011;2101;48.290;14.382;2023-09-19T11:47:55;13.53;;;1.00;;
4174;SDS011;2101;48.290;14.382;2023-09-19T11:50:22;16.90;;;1.20;;
4174;SDS011;2101;48.290;14.382;2023-09-19T11:52:50;13.17;;;1.03;;
4174;SDS011;2101;48.290;14.382;2023-09-19T11:55:17;13.53;;;1.17;;
4174;SDS011;2101;48.290;14.382;2023-09-19T11:57:47;13.03;;;0.97;;
4174;SDS011;2101;48.290;14.382;2023-09-19T12:00:21;13.10;;;1.00;;
4174;SDS011;2101;48.290;14.382;2023-09-19T12:02:50;17.30;;;1.00;;
4174;SDS011;2101;48.290;14.382;2023-09-19T12:05:27;13.50;;;0.93;;
4174;SDS011;2101;48.290;14.382;2023-09-19T12:07:55;14.23;;;1.30;;
4174;SDS011;2101;48.290;14.382;2023-09-19T12:10:23;12.37;;;0.80;;
4174;SDS011;2101;48.290;14.382;2023-09-19T12:12:51;13.70;;;1.10;;
4174;SDS011;2101;48.290;14.382;2023-09-19T12:15:25;14.27;;;1.20;;
4174;SDS011;2101;48.290;14.382;2023-09-19T12:17:53;13.40;;;1.00;;
4174;SDS011;2101;48.290;14.382;2023-09-19T12:20:23;13.90;;;1.03;;
4174;SDS011;2101;48.290;14.382;2023-09-19T12:22:50;12.90;;;0.87;;
4174;SDS011;2101;48.290;14.382;2023-09-19T12:25:16;13.30;;;0.93;;
4174;SDS011;2101;48.290;14.382;2023-09-19T12:27:51;13.40;;;1.33;;
4174;SDS011;2101;48.290;14.382;2023-09-19T12:30:21;16.17;;;1.20;;
4174;SDS011;2101;48.290;14.382;2023-09-19T12:32:55;13.20;;;1.00;;
4174;SDS011;2101;48.290;14.382;2023-09-19T12:35:26;18.40;;;1.20;;
4174;SDS011;2101;48.290;14.382;2023-09-19T12:37:56;13.37;;;1.00;;
4174;SDS011;2101;48.290;14.382;2023-09-19T12:40:23;13.67;;;1.30;;
4174;SDS011;2101;48.290;14.382;2023-09-19T12:42:58;13.20;;;1.00;;
4174;SDS011;2101;48.290;14.382;2023-09-19T12:45:25;13.30;;;0.90;;
4174;SDS011;2101;48.290;14.382;2023-09-19T12:50:37;13.20;;;1.00;;
4174;SDS011;2101;48.290;14.382;2023-09-19T12:53:26;14.20;;;1.10;;
4174;SDS011;2101;48.290;14.382;2023-09-19T12:56:00;15.67;;;0.70;;
4174;SDS011;2101;48.290;14.382;2023-09-19T12:58:26;13.50;;;1.30;;
4174;SDS011;2101;48.290;14.382;2023-09-19T13:00:55;14.50;;;1.10;;
4174;SDS011;2101;48.290;14.382;2023-09-19T13:05:53;19.53;;;1.67;;
4174;SDS011;2101;48.290;14.382;2023-09-19T13:08:34;14.50;;;1.50;;
4174;SDS011;2101;48.290;14.382;2023-09-19T13:13:34;16.13;;;1.40;;
4174;SDS011;2101;48.290;14.382;2023-09-19T13:18:40;13.70;;;1.10;;
4174;SDS011;2101;48.290;14.382;2023-09-19T13:21:12;14.70;;;1.13;;
4174;SDS011;2101;48.290;14.382;2023-09-19T13:23:49;15.80;;;1.30;;
4174;SDS011;2101;48.290;14.382;2023-09-19T13:26:25;13.67;;;0.80;;
4174;SDS011;2101;48.290;14.382;2023-09-19T13:28:53;14.40;;;1.33;;
4174;SDS011;2101;48.290;14.382;2023-09-19T13:31:19;17.10;;;1.23;;
4174;SDS011;2101;48.290;14.382;2023-09-19T13:33:47;13.53;;;0.90;;
4174;SDS011;2101;48.290;14.382;2023-09-19T13:36:13;14.03;;;1.33;;
4174;SDS011;2101;48.290;14.382;2023-09-19T13:38:40;19.30;;;1.13;;
4174;SDS011;2101;48.290;14.382;2023-09-19T13:41:09;14.20;;;1.27;;
4174;SDS011;2101;48.290;14.382;2023-09-19T13:43:38;13.20;;;1.10;;
4174;SDS011;2101;48.290;14.382;2023-09-19T13:46:05;13.77;;;1.00;;
4174;SDS011;2101;48.290;14.382;2023-09-19T13:48:37;14.30;;;1.20;;
4174;SDS011;2101;48.290;14.382;2023-09-19T13:51:12;15.80;;;0.83;;
4174;SDS011;2101;48.290;14.382;2023-09-19T14:03:27;13.00;;;0.60;;
4174;SDS011;2101;48.290;14.382;2023-09-19T14:05:56;12.97;;;0.60;;
4174;SDS011;2101;48.290;14.382;2023-09-19T14:08:22;12.83;;;0.60;;
4174;SDS011;2101;48.290;14.382;2023-09-19T14:10:48;13.23;;;0.70;;
4174;SDS011;2101;48.290;14.382;2023-09-19T14:13:18;13.13;;;0.60;;
4174;SDS011;2101;48.290;14.382;2023-09-19T14:15:45;13.13;;;0.57;;
4174;SDS011;2101;48.290;14.382;2023-09-19T14:18:11;13.03;;;0.60;;
4174;SDS011;2101;48.290;14.382;2023-09-19T14:20:38;13.23;;;0.70;;
4174;SDS011;2101;48.290;14.382;2023-09-19T14:23:07;13.07;;;0.60;;
4174;SDS011;2101;48.290;14.382;2023-09-19T14:25:35;12.93;;;0.57;;
4174;SDS011;2101;48.290;14.382;2023-09-19T14:28:06;13.30;;;0.70;;
4174;SDS011;2101;48.290;14.382;2023-09-19T14:30:33;13.03;;;0.60;;
4174;SDS011;2101;48.290;14.382;2023-09-19T14:33:06;13.03;;;0.60;;
4174;SDS011;2101;48.290;14.382;2023-09-19T14:35:33;13.30;;;0.70;;
4174;SDS011;2101;48.290;14.382;2023-09-19T14:37:59;12.97;;;0.60;;
4174;SDS011;2101;48.290;14.382;2023-09-19T14:40:28;13.03;;;0.60;;
4174;SDS011;2101;48.290;14.382;2023-09-19T14:43:02;12.90;;;0.60;;
4174;SDS011;2101;48.290;14.382;2023-09-19T14:45:29;12.90;;;0.60;;
4174;SDS011;2101;48.290;14.382;2023-09-19T14:47:57;12.93;;;0.60;;
4174;SDS011;2101;48.290;14.382;2023-09-19T14:50:31;12.87;;;0.53;;
4174;SDS011;2101;48.290;14.382;2023-09-19T14:53:04;13.33;;;1.00;;
4174;SDS011;2101;48.290;14.382;2023-09-19T14:55:36;12.97;;;0.60;;
4174;SDS011;2101;48.290;14.382;2023-09-19T14:58:06;12.90;;;0.60;;
4174;SDS011;2101;48.290;14.382;2023-09-19T15:00:33;13.33;;;0.60;;
4174;SDS011;2101;48.290;14.382;2023-09-19T15:03:00;14.47;;;0.87;;
4174;SDS011;2101;48.290;14.382;2023-09-19T15:05:28;12.83;;;0.60;;
4174;SDS011;2101;48.290;14.382;2023-09-19T15:07:57;12.77;;;0.60;;
4174;SDS011;2101;48.290;14.382;2023-09-19T15:10:24;13.00;;;0.70;;
4174;SDS011;2101;48.290;14.382;2023-09-19T15:12:50;12.90;;;0.60;;
4174;SDS011;2101;48.290;14.382;2023-09-19T15:15:16;12.87;;;0.60;;
4174;SDS011;2101;48.290;14.382;2023-09-19T15:17:42;13.13;;;0.70;;
4174;SDS011;2101;48.290;14.382;2023-09-19T15:20:08;12.77;;;0.60;;
4174;SDS011;2101;48.290;14.382;2023-09-19T15:22:38;12.93;;;0.60;;
4174;SDS011;2101;48.290;14.382;2023-09-19T15:25:05;12.57;;;0.60;;
4174;SDS011;2101;48.290;14.382;2023-09-19T15:27:31;12.77;;;0.50;;
4174;SDS011;2101;48.290;14.382;2023-09-19T15:30:00;13.20;;;0.70;;
4174;SDS011;2101;48.290;14.382;2023-09-19T15:32:27;12.47;;;0.60;;
4174;SDS011;2101;48.290;14.382;2023-09-19T15:34:54;13.00;;;0.70;;
4174;SDS011;2101;48.290;14.382;2023-09-19T15:37:20;12.47;;;0.50;;
4174;SDS011;2101;48.290;14.382;2023-09-19T15:39:53;12.77;;;0.60;;
4174;SDS011;2101;48.290;14.382;2023-09-19T15:42:19;22.50;;;1.10;;
4174;SDS011;2101;48.290;14.382;2023-09-19T15:44:45;12.67;;;0.60;;
4174;SDS011;2101;48.290;14.382;2023-09-19T15:47:13;12.73;;;0.60;;
4174;SDS011;2101;48.290;14.382;2023-09-19T15:49:39;12.63;;;0.50;;
4174;SDS011;2101;48.290;14.382;2023-09-19T15:52:05;12.47;;;0.60;;
4174;SDS011;2101;48.290;14.382;2023-09-19T15:54:33;12.73;;;0.80;;
4174;SDS011;2101;48.290;14.382;2023-09-19T15:57:00;12.73;;;0.70;;
4174;SDS011;2101;48.290;14.382;2023-09-19T15:59:26;12.77;;;0.60;;
4174;SDS011;2101;48.290;14.382;2023-09-19T16:01:52;13.10;;;0.70;;
4174;SDS011;2101;48.290;14.382;2023-09-19T16:04:18;12.57;;;0.50;;
4174;SDS011;2101;48.290;14.382;2023-09-19T16:06:44;12.43;;;0.50;;
4174;SDS011;2101;48.290;14.382;2023-09-19T16:09:10;12.63;;;0.60;;
4174;SDS011;2101;48.290;14.382;2023-09-19T16:11:37;12.47;;;0.60;;
4174;SDS011;2101;48.290;14.382;2023-09-19T16:14:03;12.37;;;0.60;;
4174;SDS011;2101;48.290;14.382;2023-09-19T16:16:31;12.53;;;0.50;;
4174;SDS011;2101;48.290;14.382;2023-09-19T16:19:00;12.70;;;0.60;;
4174;SDS011;2101;48.290;14.382;2023-09-19T16:21:32;12.43;;;0.50;;
4174;SDS011;2101;48.290;14.382;2023-09-19T16:24:00;12.60;;;0.60;;